sensor_id;sensor_type;location;lat;lon;timestamp;P1;durP1;ratioP1;P2;durP2;ratioP2
14688;SDS011;7432;48.728;9.154;2024-02-14T00:01:51;11.53;;;10.37;;
14688;SDS011;7432;48.728;9.154;2024-02-14T00:04:19;10.27;;;9.37;;
14688;SDS011;7432;48.728;9.154;2024-02-14T00:06:46;10.80;;;9.77;;
14688;SDS011;7432;48.728;9.154;2024-02-14T00:09:12;9.87;;;9.07;;
14688;SDS011;7432;48.728;9.154;2024-02-14T00:11:39;9.40;;;8.53;;
14688;SDS011;7432;48.728;9.154;2024-02-14T00:14:05;10.40;;;9.70;;
14688;SDS011;7432;48.728;9.154;2024-02-14T00:16:32;10.67;;;9.77;;
14688;SDS011;7432;48.728;9.154;2024-02-14T00:18:58;10.13;;;9.33;;
14688;SDS011;7432;48.728;9.154;2024-02-14T00:21:26;10.37;;;9.53;;
14688;SDS011;7432;48.728;9.154;2024-02-14T00:23:52;10.50;;;9.70;;
14688;SDS011;7432;48.728;9.154;2024-02-14T00:26:19;10.47;;;9.47;;
14688;SDS011;7432;48.728;9.154;2024-02-14T00:28:45;10.73;;;9.93;;
14688;SDS011;7432;48.728;9.154;2024-02-14T00:31:11;11.10;;;10.17;;
14688;SDS011;7432;48.728;9.154;2024-02-14T00:33:38;10.07;;;9.17;;
14688;SDS011;7432;48.728;9.154;2024-02-14T00:36:04;10.00;;;9.30;;
14688;SDS011;7432;48.728;9.154;2024-02-14T00:38:32;10.10;;;9.20;;
14688;SDS011;7432;48.728;9.154;2024-02-14T00:40:59;10.03;;;9.23;;
14688;SDS011;7432;48.728;9.154;2024-02-14T00:43:25;10.43;;;9.47;;
14688;SDS011;7432;48.728;9.154;2024-02-14T00:45:51;10.57;;;9.57;;
14688;SDS011;7432;48.728;9.154;2024-02-14T00:48:18;9.90;;;9.00;;
14688;SDS011;7432;48.728;9.154;2024-02-14T00:50:44;9.77;;;9.07;;
14688;SDS011;7432;48.728;9.154;2024-02-14T00:53:10;10.37;;;9.37;;
14688;SDS011;7432;48.728;9.154;2024-02-14T00:55:39;10.13;;;9.10;;
14688;SDS011;7432;48.728;9.154;2024-02-14T00:58:06;10.37;;;9.57;;
14688;SDS011;7432;48.728;9.154;2024-02-14T01:00:32;9.47;;;8.57;;
14688;SDS011;7432;48.728;9.154;2024-02-14T01:02:58;10.43;;;9.53;;
14688;SDS011;7432;48.728;9.154;2024-02-14T01:05:25;10.20;;;9.40;;
14688;SDS011;7432;48.728;9.154;2024-02-14T01:07:51;9.93;;;9.20;;
14688;SDS011;7432;48.728;9.154;2024-02-14T01:10:18;10.07;;;9.33;;
14688;SDS011;7432;48.728;9.154;2024-02-14T01:12:46;9.43;;;8.63;;
14688;SDS011;7432;48.728;9.154;2024-02-14T01:15:13;9.07;;;8.27;;
14688;SDS011;7432;48.728;9.154;2024-02-14T01:17:39;10.13;;;9.33;;
14688;SDS011;7432;48.728;9.154;2024-02-14T01:20:06;10.60;;;9.53;;
14688;SDS011;7432;48.728;9.154;2024-02-14T01:22:34;10.53;;;9.73;;
14688;SDS011;7432;48.728;9.154;2024-02-14T01:25:00;11.33;;;9.77;;
14688;SDS011;7432;48.728;9.154;2024-02-14T01:27:27;10.50;;;9.70;;
14688;SDS011;7432;48.728;9.154;2024-02-14T01:29:55;10.60;;;9.60;;
14688;SDS011;7432;48.728;9.154;2024-02-14T01:32:22;11.70;;;9.60;;
14688;SDS011;7432;48.728;9.154;2024-02-14T01:34:49;9.53;;;8.83;;
14688;SDS011;7432;48.728;9.154;2024-02-14T01:37:15;10.00;;;9.20;;
14688;SDS011;7432;48.728;9.154;2024-02-14T01:39:42;10.27;;;9.40;;
14688;SDS011;7432;48.728;9.154;2024-02-14T01:42:08;9.60;;;8.87;;
14688;SDS011;7432;48.728;9.154;2024-02-14T01:44:34;10.33;;;9.50;;
14688;SDS011;7432;48.728;9.154;2024-02-14T01:47:03;9.93;;;9.10;;
14688;SDS011;7432;48.728;9.154;2024-02-14T01:49:31;9.17;;;8.53;;
14688;SDS011;7432;48.728;9.154;2024-02-14T01:51:58;10.30;;;9.40;;
14688;SDS011;7432;48.728;9.154;2024-02-14T01:54:27;9.80;;;9.00;;
14688;SDS011;7432;48.728;9.154;2024-02-14T01:56:54;9.80;;;9.10;;
14688;SDS011;7432;48.728;9.154;2024-02-14T01:59:20;10.07;;;9.17;;
14688;SDS011;7432;48.728;9.154;2024-02-14T02:01:47;10.17;;;9.30;;
14688;SDS011;7432;48.728;9.154;2024-02-14T02:04:15;9.93;;;9.20;;
14688;SDS011;7432;48.728;9.154;2024-02-14T02:06:41;9.67;;;8.67;;
14688;SDS011;7432;48.728;9.154;2024-02-14T02:09:08;9.73;;;8.80;;
14688;SDS011;7432;48.728;9.154;2024-02-14T02:11:42;9.43;;;8.53;;
14688;SDS011;7432;48.728;9.154;2024-02-14T02:14:09;9.53;;;8.60;;
14688;SDS011;7432;48.728;9.154;2024-02-14T02:16:35;9.60;;;8.80;;
14688;SDS011;7432;48.728;9.154;2024-02-14T02:19:03;9.40;;;8.57;;
14688;SDS011;7432;48.728;9.154;2024-02-14T02:21:34;9.87;;;8.87;;
14688;SDS011;7432;48.728;9.154;2024-02-14T02:24:02;9.00;;;8.27;;
14688;SDS011;7432;48.728;9.154;2024-02-14T02:26:29;9.40;;;8.60;;
14688;SDS011;7432;48.728;9.154;2024-02-14T02:28:55;10.20;;;9.30;;
14688;SDS011;7432;48.728;9.154;2024-02-14T02:31:22;9.73;;;8.73;;
14688;SDS011;7432;48.728;9.154;2024-02-14T02:33:48;9.60;;;8.83;;
14688;SDS011;7432;48.728;9.154;2024-02-14T02:36:16;9.17;;;8.37;;
14688;SDS011;7432;48.728;9.154;2024-02-14T02:38:42;9.83;;;9.03;;
14688;SDS011;7432;48.728;9.154;2024-02-14T02:41:10;9.00;;;8.40;;
14688;SDS011;7432;48.728;9.154;2024-02-14T02:43:36;9.17;;;8.47;;
14688;SDS011;7432;48.728;9.154;2024-02-14T02:46:03;9.90;;;8.83;;
14688;SDS011;7432;48.728;9.154;2024-02-14T02:48:29;9.43;;;8.47;;
14688;SDS011;7432;48.728;9.154;2024-02-14T02:50:56;9.00;;;8.30;;
14688;SDS011;7432;48.728;9.154;2024-02-14T02:53:23;9.40;;;8.60;;
14688;SDS011;7432;48.728;9.154;2024-02-14T02:55:49;8.93;;;8.33;;
14688;SDS011;7432;48.728;9.154;2024-02-14T02:58:20;10.00;;;9.10;;
14688;SDS011;7432;48.728;9.154;2024-02-14T03:00:47;9.60;;;8.70;;
14688;SDS011;7432;48.728;9.154;2024-02-14T03:03:14;9.27;;;8.43;;
14688;SDS011;7432;48.728;9.154;2024-02-14T03:05:41;9.90;;;9.00;;
14688;SDS011;7432;48.728;9.154;2024-02-14T03:08:09;9.37;;;8.57;;
14688;SDS011;7432;48.728;9.154;2024-02-14T03:10:38;9.43;;;8.53;;
14688;SDS011;7432;48.728;9.154;2024-02-14T03:13:05;8.70;;;8.07;;
14688;SDS011;7432;48.728;9.154;2024-02-14T03:15:34;10.10;;;9.07;;
14688;SDS011;7432;48.728;9.154;2024-02-14T03:18:01;9.70;;;8.80;;
14688;SDS011;7432;48.728;9.154;2024-02-14T03:20:30;9.43;;;8.73;;
14688;SDS011;7432;48.728;9.154;2024-02-14T03:22:57;8.33;;;7.63;;
14688;SDS011;7432;48.728;9.154;2024-02-14T03:25:23;9.13;;;8.33;;
14688;SDS011;7432;48.728;9.154;2024-02-14T03:27:49;9.30;;;8.40;;
14688;SDS011;7432;48.728;9.154;2024-02-14T03:30:18;8.63;;;7.93;;
14688;SDS011;7432;48.728;9.154;2024-02-14T03:32:46;9.13;;;8.50;;
14688;SDS011;7432;48.728;9.154;2024-02-14T03:35:13;7.80;;;7.17;;
14688;SDS011;7432;48.728;9.154;2024-02-14T03:37:39;9.13;;;8.33;;
14688;SDS011;7432;48.728;9.154;2024-02-14T03:40:07;9.60;;;9.00;;
14688;SDS011;7432;48.728;9.154;2024-02-14T03:42:34;8.83;;;8.03;;
14688;SDS011;7432;48.728;9.154;2024-02-14T03:45:01;9.87;;;8.93;;
14688;SDS011;7432;48.728;9.154;2024-02-14T03:47:30;9.03;;;8.33;;
14688;SDS011;7432;48.728;9.154;2024-02-14T03:49:58;9.07;;;8.27;;
14688;SDS011;7432;48.728;9.154;2024-02-14T03:52:25;9.93;;;9.07;;
14688;SDS011;7432;48.728;9.154;2024-02-14T03:54:52;9.20;;;8.50;;
14688;SDS011;7432;48.728;9.154;2024-02-14T03:57:18;10.00;;;9.07;;
14688;SDS011;7432;48.728;9.154;2024-02-14T03:59:44;9.63;;;8.83;;
14688;SDS011;7432;48.728;9.154;2024-02-14T04:02:12;9.60;;;8.80;;
14688;SDS011;7432;48.728;9.154;2024-02-14T04:04:40;9.33;;;8.63;;
14688;SDS011;7432;48.728;9.154;2024-02-14T04:07:10;9.47;;;8.77;;
14688;SDS011;7432;48.728;9.154;2024-02-14T04:09:36;9.90;;;9.00;;
14688;SDS011;7432;48.728;9.154;2024-02-14T04:12:03;9.27;;;8.37;;
14688;SDS011;7432;48.728;9.154;2024-02-14T04:14:30;9.33;;;8.73;;
14688;SDS011;7432;48.728;9.154;2024-02-14T04:16:56;8.93;;;8.23;;
14688;SDS011;7432;48.728;9.154;2024-02-14T04:19:23;8.80;;;8.20;;
14688;SDS011;7432;48.728;9.154;2024-02-14T04:21:49;9.10;;;8.40;;
14688;SDS011;7432;48.728;9.154;2024-02-14T04:24:17;9.13;;;8.43;;
14688;SDS011;7432;48.728;9.154;2024-02-14T04:26:43;9.17;;;8.33;;
14688;SDS011;7432;48.728;9.154;2024-02-14T04:29:09;8.27;;;7.67;;
14688;SDS011;7432;48.728;9.154;2024-02-14T04:31:36;9.57;;;8.70;;
14688;SDS011;7432;48.728;9.154;2024-02-14T04:34:02;8.57;;;7.87;;
14688;SDS011;7432;48.728;9.154;2024-02-14T04:36:30;8.60;;;7.80;;
14688;SDS011;7432;48.728;9.154;2024-02-14T04:38:57;9.27;;;8.50;;
14688;SDS011;7432;48.728;9.154;2024-02-14T04:41:25;8.47;;;7.80;;
14688;SDS011;7432;48.728;9.154;2024-02-14T04:43:51;8.83;;;8.13;;
14688;SDS011;7432;48.728;9.154;2024-02-14T04:46:18;9.03;;;8.23;;
14688;SDS011;7432;48.728;9.154;2024-02-14T04:48:44;8.90;;;7.50;;
14688;SDS011;7432;48.728;9.154;2024-02-14T04:51:11;8.40;;;7.47;;
14688;SDS011;7432;48.728;9.154;2024-02-14T04:53:37;8.33;;;7.63;;
14688;SDS011;7432;48.728;9.154;2024-02-14T04:56:04;9.40;;;8.70;;
14688;SDS011;7432;48.728;9.154;2024-02-14T04:58:32;8.90;;;8.27;;
14688;SDS011;7432;48.728;9.154;2024-02-14T05:00:58;7.87;;;7.27;;
14688;SDS011;7432;48.728;9.154;2024-02-14T05:03:24;8.93;;;8.30;;
14688;SDS011;7432;48.728;9.154;2024-02-14T05:05:51;9.23;;;8.33;;
14688;SDS011;7432;48.728;9.154;2024-02-14T05:08:17;8.63;;;8.03;;
14688;SDS011;7432;48.728;9.154;2024-02-14T05:10:43;9.27;;;8.40;;
14688;SDS011;7432;48.728;9.154;2024-02-14T05:13:10;8.47;;;7.77;;
14688;SDS011;7432;48.728;9.154;2024-02-14T05:15:38;9.20;;;8.57;;
14688;SDS011;7432;48.728;9.154;2024-02-14T05:18:05;8.93;;;8.30;;
14688;SDS011;7432;48.728;9.154;2024-02-14T05:20:31;9.90;;;9.10;;
14688;SDS011;7432;48.728;9.154;2024-02-14T05:22:58;9.83;;;8.10;;
14688;SDS011;7432;48.728;9.154;2024-02-14T05:25:24;9.27;;;8.47;;
14688;SDS011;7432;48.728;9.154;2024-02-14T05:27:52;9.77;;;8.87;;
14688;SDS011;7432;48.728;9.154;2024-02-14T05:30:19;8.90;;;8.20;;
14688;SDS011;7432;48.728;9.154;2024-02-14T05:32:46;9.30;;;8.50;;
14688;SDS011;7432;48.728;9.154;2024-02-14T05:35:13;9.83;;;8.87;;
14688;SDS011;7432;48.728;9.154;2024-02-14T05:37:39;9.80;;;9.10;;
14688;SDS011;7432;48.728;9.154;2024-02-14T05:40:06;12.13;;;8.60;;
14688;SDS011;7432;48.728;9.154;2024-02-14T05:42:33;9.20;;;8.50;;
14688;SDS011;7432;48.728;9.154;2024-02-14T05:45:00;9.20;;;8.50;;
14688;SDS011;7432;48.728;9.154;2024-02-14T05:47:26;8.30;;;7.67;;
14688;SDS011;7432;48.728;9.154;2024-02-14T05:49:54;8.90;;;8.10;;
14688;SDS011;7432;48.728;9.154;2024-02-14T05:52:20;9.43;;;8.53;;
14688;SDS011;7432;48.728;9.154;2024-02-14T05:54:47;9.40;;;8.70;;
14688;SDS011;7432;48.728;9.154;2024-02-14T05:57:13;10.47;;;9.57;;
14688;SDS011;7432;48.728;9.154;2024-02-14T05:59:40;9.67;;;8.77;;
14688;SDS011;7432;48.728;9.154;2024-02-14T06:02:06;9.40;;;8.60;;
14688;SDS011;7432;48.728;9.154;2024-02-14T06:04:34;9.23;;;8.53;;
14688;SDS011;7432;48.728;9.154;2024-02-14T06:07:02;10.20;;;9.20;;
14688;SDS011;7432;48.728;9.154;2024-02-14T06:09:30;9.30;;;8.43;;
14688;SDS011;7432;48.728;9.154;2024-02-14T06:11:57;9.43;;;8.70;;
14688;SDS011;7432;48.728;9.154;2024-02-14T06:14:23;9.10;;;8.50;;
14688;SDS011;7432;48.728;9.154;2024-02-14T06:16:49;9.80;;;8.30;;
14688;SDS011;7432;48.728;9.154;2024-02-14T06:19:16;9.13;;;8.43;;
14688;SDS011;7432;48.728;9.154;2024-02-14T06:21:42;9.90;;;9.10;;
14688;SDS011;7432;48.728;9.154;2024-02-14T06:24:10;9.30;;;8.67;;
14688;SDS011;7432;48.728;9.154;2024-02-14T06:26:38;9.10;;;8.40;;
14688;SDS011;7432;48.728;9.154;2024-02-14T06:29:04;9.63;;;8.93;;
14688;SDS011;7432;48.728;9.154;2024-02-14T06:31:31;8.67;;;8.07;;
14688;SDS011;7432;48.728;9.154;2024-02-14T06:33:57;8.90;;;8.20;;
14688;SDS011;7432;48.728;9.154;2024-02-14T06:36:23;9.53;;;8.70;;
14688;SDS011;7432;48.728;9.154;2024-02-14T06:38:50;8.33;;;7.50;;
14688;SDS011;7432;48.728;9.154;2024-02-14T06:41:18;9.73;;;9.03;;
14688;SDS011;7432;48.728;9.154;2024-02-14T06:43:45;9.40;;;8.60;;
14688;SDS011;7432;48.728;9.154;2024-02-14T06:46:11;9.70;;;8.73;;
14688;SDS011;7432;48.728;9.154;2024-02-14T06:48:37;9.43;;;8.33;;
14688;SDS011;7432;48.728;9.154;2024-02-14T06:51:05;9.60;;;8.90;;
14688;SDS011;7432;48.728;9.154;2024-02-14T06:53:32;9.40;;;8.60;;
14688;SDS011;7432;48.728;9.154;2024-02-14T06:55:58;9.70;;;8.90;;
14688;SDS011;7432;48.728;9.154;2024-02-14T06:58:26;9.97;;;9.37;;
14688;SDS011;7432;48.728;9.154;2024-02-14T07:00:53;9.63;;;8.83;;
14688;SDS011;7432;48.728;9.154;2024-02-14T07:03:19;9.27;;;8.47;;
14688;SDS011;7432;48.728;9.154;2024-02-14T07:05:45;9.40;;;8.70;;
14688;SDS011;7432;48.728;9.154;2024-02-14T07:08:12;9.40;;;8.53;;
14688;SDS011;7432;48.728;9.154;2024-02-14T07:10:39;9.03;;;8.33;;
14688;SDS011;7432;48.728;9.154;2024-02-14T07:13:05;9.77;;;8.80;;
14688;SDS011;7432;48.728;9.154;2024-02-14T07:15:33;9.00;;;8.27;;
14688;SDS011;7432;48.728;9.154;2024-02-14T07:17:59;8.10;;;7.60;;
14688;SDS011;7432;48.728;9.154;2024-02-14T07:20:26;9.83;;;8.93;;
14688;SDS011;7432;48.728;9.154;2024-02-14T07:22:52;8.80;;;8.07;;
14688;SDS011;7432;48.728;9.154;2024-02-14T07:25:20;9.40;;;8.60;;
14688;SDS011;7432;48.728;9.154;2024-02-14T07:27:46;8.43;;;7.60;;
14688;SDS011;7432;48.728;9.154;2024-02-14T07:30:14;9.60;;;8.90;;
14688;SDS011;7432;48.728;9.154;2024-02-14T07:32:42;9.20;;;8.50;;
14688;SDS011;7432;48.728;9.154;2024-02-14T07:35:09;8.53;;;7.83;;
14688;SDS011;7432;48.728;9.154;2024-02-14T07:37:36;8.90;;;8.30;;
14688;SDS011;7432;48.728;9.154;2024-02-14T07:40:01;9.47;;;8.77;;
14688;SDS011;7432;48.728;9.154;2024-02-14T07:42:28;8.33;;;7.80;;
14688;SDS011;7432;48.728;9.154;2024-02-14T07:44:54;8.50;;;7.80;;
14688;SDS011;7432;48.728;9.154;2024-02-14T07:47:21;8.63;;;7.70;;
14688;SDS011;7432;48.728;9.154;2024-02-14T07:49:49;8.73;;;7.97;;
14688;SDS011;7432;48.728;9.154;2024-02-14T07:52:18;8.80;;;8.10;;
14688;SDS011;7432;48.728;9.154;2024-02-14T07:54:44;8.67;;;7.97;;
14688;SDS011;7432;48.728;9.154;2024-02-14T07:57:10;7.80;;;7.20;;
14688;SDS011;7432;48.728;9.154;2024-02-14T07:59:37;8.83;;;8.23;;
14688;SDS011;7432;48.728;9.154;2024-02-14T08:02:03;8.53;;;8.00;;
14688;SDS011;7432;48.728;9.154;2024-02-14T08:04:30;9.20;;;8.60;;
14688;SDS011;7432;48.728;9.154;2024-02-14T08:06:57;8.50;;;7.90;;
14688;SDS011;7432;48.728;9.154;2024-02-14T08:09:24;8.67;;;8.07;;
14688;SDS011;7432;48.728;9.154;2024-02-14T08:11:50;8.70;;;8.10;;
14688;SDS011;7432;48.728;9.154;2024-02-14T08:14:18;8.07;;;7.57;;
14688;SDS011;7432;48.728;9.154;2024-02-14T08:16:44;7.70;;;7.20;;
14688;SDS011;7432;48.728;9.154;2024-02-14T08:19:10;8.10;;;7.50;;
14688;SDS011;7432;48.728;9.154;2024-02-14T08:21:37;8.63;;;8.13;;
14688;SDS011;7432;48.728;9.154;2024-02-14T08:24:04;9.87;;;8.97;;
14688;SDS011;7432;48.728;9.154;2024-02-14T08:26:31;8.17;;;7.77;;
14688;SDS011;7432;48.728;9.154;2024-02-14T08:28:57;8.70;;;8.00;;
14688;SDS011;7432;48.728;9.154;2024-02-14T08:31:25;8.90;;;8.23;;
14688;SDS011;7432;48.728;9.154;2024-02-14T08:33:51;8.50;;;7.90;;
14688;SDS011;7432;48.728;9.154;2024-02-14T08:36:18;8.87;;;8.27;;
14688;SDS011;7432;48.728;9.154;2024-02-14T08:38:45;8.83;;;8.23;;
14688;SDS011;7432;48.728;9.154;2024-02-14T08:41:12;8.57;;;7.90;;
14688;SDS011;7432;48.728;9.154;2024-02-14T08:43:39;9.20;;;8.60;;
14688;SDS011;7432;48.728;9.154;2024-02-14T08:46:08;8.17;;;7.57;;
14688;SDS011;7432;48.728;9.154;2024-02-14T08:48:35;9.03;;;8.23;;
14688;SDS011;7432;48.728;9.154;2024-02-14T08:51:02;9.53;;;8.60;;
14688;SDS011;7432;48.728;9.154;2024-02-14T08:53:29;7.97;;;7.37;;
14688;SDS011;7432;48.728;9.154;2024-02-14T08:55:55;9.17;;;8.60;;
14688;SDS011;7432;48.728;9.154;2024-02-14T08:58:24;8.93;;;8.33;;
14688;SDS011;7432;48.728;9.154;2024-02-14T09:00:50;9.30;;;8.50;;
14688;SDS011;7432;48.728;9.154;2024-02-14T09:03:18;9.70;;;9.00;;
14688;SDS011;7432;48.728;9.154;2024-02-14T09:05:45;8.63;;;8.10;;
14688;SDS011;7432;48.728;9.154;2024-02-14T09:08:12;8.60;;;8.00;;
14688;SDS011;7432;48.728;9.154;2024-02-14T09:10:39;9.43;;;8.83;;
14688;SDS011;7432;48.728;9.154;2024-02-14T09:13:05;8.80;;;8.30;;
14688;SDS011;7432;48.728;9.154;2024-02-14T09:15:33;9.60;;;8.80;;
14688;SDS011;7432;48.728;9.154;2024-02-14T09:18:00;8.43;;;7.87;;
14688;SDS011;7432;48.728;9.154;2024-02-14T09:20:28;9.90;;;9.10;;
14688;SDS011;7432;48.728;9.154;2024-02-14T09:22:54;9.30;;;8.70;;
14688;SDS011;7432;48.728;9.154;2024-02-14T09:25:21;8.67;;;8.07;;
14688;SDS011;7432;48.728;9.154;2024-02-14T09:27:48;9.40;;;8.70;;
14688;SDS011;7432;48.728;9.154;2024-02-14T09:30:14;9.27;;;8.67;;
14688;SDS011;7432;48.728;9.154;2024-02-14T09:32:43;9.10;;;8.53;;
14688;SDS011;7432;48.728;9.154;2024-02-14T09:35:10;9.13;;;8.53;;
14688;SDS011;7432;48.728;9.154;2024-02-14T09:37:36;9.07;;;8.37;;
14688;SDS011;7432;48.728;9.154;2024-02-14T09:40:04;9.13;;;8.53;;
14688;SDS011;7432;48.728;9.154;2024-02-14T09:42:33;9.07;;;8.47;;
14688;SDS011;7432;48.728;9.154;2024-02-14T09:45:05;9.90;;;9.03;;
14688;SDS011;7432;48.728;9.154;2024-02-14T09:47:32;9.50;;;8.80;;
14688;SDS011;7432;48.728;9.154;2024-02-14T09:50:01;9.60;;;9.03;;
14688;SDS011;7432;48.728;9.154;2024-02-14T09:52:31;7.93;;;7.33;;
14688;SDS011;7432;48.728;9.154;2024-02-14T09:54:58;8.70;;;8.17;;
14688;SDS011;7432;48.728;9.154;2024-02-14T09:57:25;8.90;;;8.30;;
14688;SDS011;7432;48.728;9.154;2024-02-14T09:59:52;8.90;;;8.30;;
14688;SDS011;7432;48.728;9.154;2024-02-14T10:02:19;9.57;;;8.90;;
14688;SDS011;7432;48.728;9.154;2024-02-14T10:04:46;8.70;;;8.10;;
14688;SDS011;7432;48.728;9.154;2024-02-14T10:07:14;9.00;;;8.40;;
14688;SDS011;7432;48.728;9.154;2024-02-14T10:09:41;9.10;;;8.30;;
14688;SDS011;7432;48.728;9.154;2024-02-14T10:12:08;8.63;;;8.03;;
14688;SDS011;7432;48.728;9.154;2024-02-14T10:14:34;9.10;;;8.50;;
14688;SDS011;7432;48.728;9.154;2024-02-14T10:17:02;8.47;;;7.97;;
14688;SDS011;7432;48.728;9.154;2024-02-14T10:19:28;8.97;;;8.37;;
14688;SDS011;7432;48.728;9.154;2024-02-14T10:21:55;8.37;;;7.87;;
14688;SDS011;7432;48.728;9.154;2024-02-14T10:24:25;9.30;;;8.70;;
14688;SDS011;7432;48.728;9.154;2024-02-14T10:26:51;8.80;;;8.10;;
14688;SDS011;7432;48.728;9.154;2024-02-14T10:29:18;8.50;;;8.00;;
14688;SDS011;7432;48.728;9.154;2024-02-14T10:31:46;9.97;;;8.17;;
14688;SDS011;7432;48.728;9.154;2024-02-14T10:34:13;8.33;;;7.83;;
14688;SDS011;7432;48.728;9.154;2024-02-14T10:36:40;8.63;;;8.13;;
14688;SDS011;7432;48.728;9.154;2024-02-14T10:39:08;9.10;;;8.40;;
14688;SDS011;7432;48.728;9.154;2024-02-14T10:41:38;8.80;;;8.27;;
14688;SDS011;7432;48.728;9.154;2024-02-14T10:44:04;8.23;;;7.73;;
14688;SDS011;7432;48.728;9.154;2024-02-14T10:46:32;8.07;;;7.57;;
14688;SDS011;7432;48.728;9.154;2024-02-14T10:49:02;8.50;;;8.10;;
14688;SDS011;7432;48.728;9.154;2024-02-14T10:51:29;8.40;;;7.90;;
14688;SDS011;7432;48.728;9.154;2024-02-14T10:53:57;8.43;;;7.83;;
14688;SDS011;7432;48.728;9.154;2024-02-14T10:56:25;8.30;;;7.80;;
14688;SDS011;7432;48.728;9.154;2024-02-14T10:58:56;8.03;;;7.60;;
14688;SDS011;7432;48.728;9.154;2024-02-14T11:01:24;8.07;;;7.60;;
14688;SDS011;7432;48.728;9.154;2024-02-14T11:03:52;8.67;;;8.10;;
14688;SDS011;7432;48.728;9.154;2024-02-14T11:06:20;8.60;;;7.83;;
14688;SDS011;7432;48.728;9.154;2024-02-14T11:08:55;8.70;;;8.00;;
14688;SDS011;7432;48.728;9.154;2024-02-14T11:11:22;7.63;;;7.10;;
14688;SDS011;7432;48.728;9.154;2024-02-14T11:13:51;7.83;;;7.33;;
14688;SDS011;7432;48.728;9.154;2024-02-14T11:16:23;8.43;;;7.90;;
14688;SDS011;7432;48.728;9.154;2024-02-14T11:18:53;7.90;;;7.50;;
14688;SDS011;7432;48.728;9.154;2024-02-14T11:21:19;8.03;;;7.63;;
14688;SDS011;7432;48.728;9.154;2024-02-14T11:23:52;7.87;;;7.47;;
14688;SDS011;7432;48.728;9.154;2024-02-14T11:26:19;7.70;;;7.30;;
14688;SDS011;7432;48.728;9.154;2024-02-14T11:28:48;8.40;;;7.87;;
14688;SDS011;7432;48.728;9.154;2024-02-14T11:31:16;8.37;;;7.87;;
14688;SDS011;7432;48.728;9.154;2024-02-14T11:33:44;8.17;;;7.77;;
14688;SDS011;7432;48.728;9.154;2024-02-14T11:36:11;8.63;;;7.77;;
14688;SDS011;7432;48.728;9.154;2024-02-14T11:38:40;8.43;;;7.77;;
14688;SDS011;7432;48.728;9.154;2024-02-14T11:41:07;7.97;;;7.47;;
14688;SDS011;7432;48.728;9.154;2024-02-14T11:43:34;8.97;;;8.37;;
14688;SDS011;7432;48.728;9.154;2024-02-14T11:46:00;7.97;;;7.57;;
14688;SDS011;7432;48.728;9.154;2024-02-14T11:48:29;8.27;;;7.87;;
14688;SDS011;7432;48.728;9.154;2024-02-14T11:50:58;8.73;;;8.27;;
14688;SDS011;7432;48.728;9.154;2024-02-14T11:53:25;8.40;;;8.00;;
14688;SDS011;7432;48.728;9.154;2024-02-14T11:55:53;8.20;;;7.70;;
14688;SDS011;7432;48.728;9.154;2024-02-14T11:58:21;7.83;;;7.33;;
14688;SDS011;7432;48.728;9.154;2024-02-14T12:00:47;8.40;;;8.00;;
14688;SDS011;7432;48.728;9.154;2024-02-14T12:03:15;9.10;;;8.30;;
14688;SDS011;7432;48.728;9.154;2024-02-14T12:05:43;8.40;;;8.00;;
14688;SDS011;7432;48.728;9.154;2024-02-14T12:08:13;7.77;;;7.27;;
14688;SDS011;7432;48.728;9.154;2024-02-14T12:10:42;8.10;;;7.70;;
14688;SDS011;7432;48.728;9.154;2024-02-14T12:13:12;8.40;;;7.80;;
14688;SDS011;7432;48.728;9.154;2024-02-14T12:15:42;8.17;;;7.67;;
14688;SDS011;7432;48.728;9.154;2024-02-14T12:18:11;8.83;;;8.23;;
14688;SDS011;7432;48.728;9.154;2024-02-14T12:20:38;8.40;;;7.90;;
14688;SDS011;7432;48.728;9.154;2024-02-14T12:23:05;8.20;;;7.73;;
14688;SDS011;7432;48.728;9.154;2024-02-14T12:25:33;8.67;;;8.17;;
14688;SDS011;7432;48.728;9.154;2024-02-14T12:28:00;8.60;;;8.00;;
14688;SDS011;7432;48.728;9.154;2024-02-14T12:30:28;8.23;;;7.80;;
14688;SDS011;7432;48.728;9.154;2024-02-14T12:33:09;8.60;;;8.10;;
14688;SDS011;7432;48.728;9.154;2024-02-14T12:35:36;9.07;;;8.47;;
14688;SDS011;7432;48.728;9.154;2024-02-14T12:38:07;7.23;;;6.83;;
14688;SDS011;7432;48.728;9.154;2024-02-14T12:40:36;8.83;;;8.03;;
14688;SDS011;7432;48.728;9.154;2024-02-14T12:43:02;9.03;;;8.47;;
14688;SDS011;7432;48.728;9.154;2024-02-14T12:45:30;7.83;;;7.43;;
14688;SDS011;7432;48.728;9.154;2024-02-14T12:47:58;8.90;;;8.30;;
14688;SDS011;7432;48.728;9.154;2024-02-14T12:50:25;8.37;;;7.97;;
14688;SDS011;7432;48.728;9.154;2024-02-14T12:52:52;8.90;;;8.40;;
14688;SDS011;7432;48.728;9.154;2024-02-14T12:55:18;8.13;;;7.63;;
14688;SDS011;7432;48.728;9.154;2024-02-14T12:57:46;8.77;;;8.27;;
14688;SDS011;7432;48.728;9.154;2024-02-14T13:00:13;8.50;;;8.10;;
14688;SDS011;7432;48.728;9.154;2024-02-14T13:02:40;8.37;;;7.93;;
14688;SDS011;7432;48.728;9.154;2024-02-14T13:05:07;8.53;;;8.13;;
14688;SDS011;7432;48.728;9.154;2024-02-14T13:07:34;8.60;;;8.20;;
14688;SDS011;7432;48.728;9.154;2024-02-14T13:10:01;8.23;;;7.83;;
14688;SDS011;7432;48.728;9.154;2024-02-14T13:12:28;8.47;;;7.97;;
14688;SDS011;7432;48.728;9.154;2024-02-14T13:14:55;9.00;;;8.40;;
14688;SDS011;7432;48.728;9.154;2024-02-14T13:17:22;9.10;;;8.37;;
14688;SDS011;7432;48.728;9.154;2024-02-14T13:19:50;8.57;;;7.97;;
14688;SDS011;7432;48.728;9.154;2024-02-14T13:22:18;7.60;;;7.20;;
14688;SDS011;7432;48.728;9.154;2024-02-14T13:24:44;7.93;;;7.53;;
14688;SDS011;7432;48.728;9.154;2024-02-14T13:27:10;8.30;;;7.87;;
14688;SDS011;7432;48.728;9.154;2024-02-14T13:29:37;7.93;;;7.53;;
14688;SDS011;7432;48.728;9.154;2024-02-14T13:32:05;8.73;;;8.23;;
14688;SDS011;7432;48.728;9.154;2024-02-14T13:34:32;8.30;;;7.80;;
14688;SDS011;7432;48.728;9.154;2024-02-14T13:36:58;8.80;;;8.20;;
14688;SDS011;7432;48.728;9.154;2024-02-14T13:39:25;9.00;;;8.40;;
14688;SDS011;7432;48.728;9.154;2024-02-14T13:41:51;8.87;;;8.47;;
14688;SDS011;7432;48.728;9.154;2024-02-14T13:44:19;9.03;;;8.30;;
14688;SDS011;7432;48.728;9.154;2024-02-14T13:46:46;8.70;;;8.30;;
14688;SDS011;7432;48.728;9.154;2024-02-14T13:49:16;8.33;;;7.90;;
14688;SDS011;7432;48.728;9.154;2024-02-14T13:51:46;8.60;;;8.10;;
14688;SDS011;7432;48.728;9.154;2024-02-14T13:54:13;8.07;;;7.67;;
14688;SDS011;7432;48.728;9.154;2024-02-14T13:56:39;8.13;;;7.63;;
14688;SDS011;7432;48.728;9.154;2024-02-14T13:59:06;8.53;;;8.00;;
14688;SDS011;7432;48.728;9.154;2024-02-14T14:01:32;7.47;;;7.07;;
14688;SDS011;7432;48.728;9.154;2024-02-14T14:03:59;8.17;;;7.77;;
14688;SDS011;7432;48.728;9.154;2024-02-14T14:06:26;8.13;;;7.63;;
14688;SDS011;7432;48.728;9.154;2024-02-14T14:08:53;8.47;;;8.07;;
14688;SDS011;7432;48.728;9.154;2024-02-14T14:11:19;8.43;;;8.03;;
14688;SDS011;7432;48.728;9.154;2024-02-14T14:13:46;9.27;;;8.77;;
14688;SDS011;7432;48.728;9.154;2024-02-14T14:16:12;8.87;;;8.37;;
14688;SDS011;7432;48.728;9.154;2024-02-14T14:18:39;9.00;;;8.50;;
14688;SDS011;7432;48.728;9.154;2024-02-14T14:21:05;8.70;;;8.30;;
14688;SDS011;7432;48.728;9.154;2024-02-14T14:23:33;8.50;;;7.90;;
14688;SDS011;7432;48.728;9.154;2024-02-14T14:25:59;9.17;;;8.73;;
14688;SDS011;7432;48.728;9.154;2024-02-14T14:28:26;8.30;;;7.90;;
14688;SDS011;7432;48.728;9.154;2024-02-14T14:30:53;9.20;;;8.40;;
14688;SDS011;7432;48.728;9.154;2024-02-14T14:33:20;9.23;;;8.73;;
14688;SDS011;7432;48.728;9.154;2024-02-14T14:35:46;8.80;;;8.30;;
14688;SDS011;7432;48.728;9.154;2024-02-14T14:38:14;9.50;;;9.00;;
14688;SDS011;7432;48.728;9.154;2024-02-14T14:40:42;9.27;;;8.77;;
14688;SDS011;7432;48.728;9.154;2024-02-14T14:43:10;9.17;;;8.57;;
14688;SDS011;7432;48.728;9.154;2024-02-14T14:45:37;9.50;;;9.00;;
14688;SDS011;7432;48.728;9.154;2024-02-14T14:48:03;8.50;;;8.10;;
14688;SDS011;7432;48.728;9.154;2024-02-14T14:50:31;8.90;;;8.40;;
14688;SDS011;7432;48.728;9.154;2024-02-14T14:52:57;8.90;;;8.50;;
14688;SDS011;7432;48.728;9.154;2024-02-14T14:55:24;8.90;;;8.50;;
14688;SDS011;7432;48.728;9.154;2024-02-14T14:57:52;9.27;;;8.80;;
14688;SDS011;7432;48.728;9.154;2024-02-14T15:00:21;8.77;;;8.33;;